Time;durP1;ratioP1;P1;durP2;ratioP2;P2;SDS_P1;SDS_P2;PMS_P1;PMS_P2;Temp;Humidity;BMP_temperature;BMP_pressure;BME280_temperature;BME280_humidity;BME280_pressure;Samples;Min_cycle;Max_cycle;Signal;HPM_P1;HPM_P2
2020/05/03 00:00:04;;;;;;;3.6;3;;;;;;;6.62;99.36523;958.6316;;;;
2020/05/03 00:02:31;;;;;;;5.6;3.2;;;;;;;6.69;99.83594;958.6394;;;;
2020/05/03 00:04:56;;;;;;;3.8;2.8;;;;;;;6.59;98.54883;958.6266;;;;
2020/05/03 00:07:21;;;;;;;3.8;2.7;;;;;;;6.5;98.32129;958.5703;;;;
2020/05/03 00:09:46;;;;;;;3.6;2.9;;;;;;;6.64;99.5498;958.5542;;;;
2020/05/03 00:12:12;;;;;;;3.2;2.6;;;;;;;6.59;99.37695;958.5463;;;;
2020/05/03 00:14:38;;;;;;;3.8;3.1;;;;;;;6.55;99.19824;958.5642;;;;
2020/05/03 00:17:04;;;;;;;4.4;2.9;;;;;;;6.58;99.19531;958.5309;;;;
2020/05/03 00:19:29;;;;;;;4.1;3;;;;;;;6.6;99.00488;958.5839;;;;
2020/05/03 00:21:54;;;;;;;4.8;2.8;;;;;;;6.54;100;958.5511;;;;
2020/05/03 00:24:20;;;;;;;4;3;;;;;;;6.53;100;958.5581;;;;
2020/05/03 00:26:45;;;;;;;3.7;2.7;;;;;;;6.47;100;958.5513;;;;
2020/05/03 00:29:12;;;;;;;4.4;2.7;;;;;;;6.38;100;958.5405;;;;
2020/05/03 00:31:37;;;;;;;4.3;2.7;;;;;;;6.35;100;958.5427;;;;
2020/05/03 00:34:03;;;;;;;5.2;2.9;;;;;;;6.4;100;958.5283;;;;
2020/05/03 00:36:28;;;;;;;4.3;2.7;;;;;;;6.48;99.84277;958.5233;;;;
2020/05/03 00:38:54;;;;;;;4.3;2.9;;;;;;;6.49;99.04883;958.4769;;;;
2020/05/03 00:41:19;;;;;;;4.3;2.8;;;;;;;6.44;99.49219;958.5285;;;;
2020/05/03 00:43:46;;;;;;;4.3;2.7;;;;;;;6.43;98.59863;958.5076;;;;
2020/05/03 00:46:11;;;;;;;3.7;3;;;;;;;6.45;98.83301;958.485;;;;
2020/05/03 00:48:37;;;;;;;4.5;2.7;;;;;;;6.48;99.27246;958.5475;;;;
2020/05/03 00:51:02;;;;;;;4.6;3.1;;;;;;;6.45;98.67383;958.5328;;;;
2020/05/03 00:53:29;;;;;;;3.1;2.8;;;;;;;6.39;98.68359;958.5244;;;;
2020/05/03 00:56:01;;;;;;;3.6;2.4;;;;;;;6.38;98.23535;958.563;;;;
2020/05/03 00:58:26;;;;;;;4.5;3;;;;;;;6.46;99.89551;958.5516;;;;
2020/05/03 01:00:51;;;;;;;4.1;2.6;;;;;;;6.42;98.82715;958.5876;;;;
2020/05/03 01:03:16;;;;;;;3.5;2.8;;;;;;;6.43;99.58105;958.6049;;;;
2020/05/03 01:05:42;;;;;;;4.9;2.5;;;;;;;6.45;97.71582;958.5474;;;;
2020/05/03 01:08:07;;;;;;;4.4;2.8;;;;;;;6.46;97.8916;958.6014;;;;
2020/05/03 01:10:32;;;;;;;3.5;2.7;;;;;;;6.54;99.17285;958.6038;;;;
2020/05/03 01:12:59;;;;;;;3.6;2.6;;;;;;;6.55;98.60547;958.6164;;;;
2020/05/03 01:15:24;;;;;;;5.5;2.6;;;;;;;6.46;99.00879;958.6767;;;;
2020/05/03 01:17:49;;;;;;;4.3;3;;;;;;;6.49;99.23145;958.6299;;;;
2020/05/03 01:20:15;;;;;;;3.8;2.8;;;;;;;6.51;99.60059;958.6635;;;;
2020/05/03 01:22:41;;;;;;;3.5;2.7;;;;;;;6.47;99.34082;958.6777;;;;
2020/05/03 01:25:07;;;;;;;4.2;2.8;;;;;;;6.4;100;958.6941;;;;
2020/05/03 01:27:32;;;;;;;3.4;2.8;;;;;;;6.37;99.99023;958.7587;;;;
2020/05/03 01:29:57;;;;;;;3.5;2.6;;;;;;;6.42;100;958.6677;;;;
2020/05/03 01:32:34;;;;;;;3.6;2.8;;;;;;;6.4;100;958.6467;;;;
2020/05/03 01:34:47;;;;;;;3.4;2.8;;;;;;;6.25;100;958.6959;;;;
2020/05/03 01:37:14;;;;;;;5;3.1;;;;;;;6.24;100;958.7168;;;;
2020/05/03 01:39:39;;;;;;;4.3;3.2;;;;;;;6.28;100;958.7523;;;;
2020/05/03 01:42:05;;;;;;;4.7;3.3;;;;;;;6.25;100;958.7756;;;;
2020/05/03 01:44:30;;;;;;;3.7;3.3;;;;;;;6.28;100;958.7726;;;;
2020/05/03 01:46:57;;;;;;;4.7;3;;;;;;;6.28;100;958.8058;;;;
2020/05/03 01:49:22;;;;;;;5.5;3.3;;;;;;;6.21;100;958.8322;;;;
2020/05/03 01:51:52;;;;;;;3.8;3.4;;;;;;;6.29;100;958.866;;;;
2020/05/03 01:57:38;;;;;;;5.9;3.2;;;;;;;6.33;100;958.8339;;;;
2020/05/03 02:03:59;;;;;;;3.8;3.1;;;;;;;6.19;100;958.8412;;;;
2020/05/03 02:07:24;;;;;;;4.4;3.6;;;;;;;6.24;100;958.8196;;;;
2020/05/03 02:08:46;;;;;;;4;3.2;;;;;;;6.17;100;958.8343;;;;
2020/05/03 02:11:17;;;;;;;3.6;3.2;;;;;;;6.32;100;958.8459;;;;
2020/05/03 02:19:46;;;;;;;3.7;3.3;;;;;;;6.2;100;958.8628;;;;
2020/05/03 02:22:07;;;;;;;4;3.2;;;;;;;6.24;100;958.927;;;;
2020/05/03 02:24:32;;;;;;;4;3.3;;;;;;;6.2;100;958.925;;;;
2020/05/03 02:26:57;;;;;;;3.4;3.1;;;;;;;6.19;100;958.9714;;;;
2020/05/03 02:29:22;;;;;;;3.8;3.1;;;;;;;6.3;100;959.0051;;;;
2020/05/03 02:31:47;;;;;;;4.4;3.4;;;;;;;6.26;100;958.9894;;;;
2020/05/03 02:34:12;;;;;;;5.2;3.6;;;;;;;6.24;100;958.9846;;;;
2020/05/03 02:36:37;;;;;;;5;3.5;;;;;;;6.24;100;959.0444;;;;
2020/05/03 02:39:02;;;;;;;4.7;3.6;;;;;;;6.24;100;959.0316;;;;
2020/05/03 02:41:27;;;;;;;4.4;3.6;;;;;;;6.21;100;959.0474;;;;
2020/05/03 02:43:53;;;;;;;5.4;3.5;;;;;;;6.16;100;959.072;;;;
2020/05/03 02:46:20;;;;;;;5.7;3.8;;;;;;;6.16;100;959.1043;;;;
2020/05/03 02:51:10;;;;;;;5.9;4.1;;;;;;;5.88;100;959.1672;;;;
2020/05/03 02:53:35;;;;;;;6.6;4.4;;;;;;;6.08;100;959.1506;;;;
2020/05/03 02:58:25;;;;;;;5.7;4.1;;;;;;;6.15;100;959.1675;;;;
2020/05/03 03:00:52;;;;;;;5.8;4.2;;;;;;;5.98;100;959.1678;;;;
2020/05/03 03:03:17;;;;;;;5;4.1;;;;;;;5.95;100;959.225;;;;
2020/05/03 03:05:42;;;;;;;5;4.2;;;;;;;5.99;100;959.179;;;;
2020/05/03 03:08:08;;;;;;;5.2;4.5;;;;;;;5.84;100;959.213;;;;
2020/05/03 03:10:33;;;;;;;5.3;4.5;;;;;;;5.87;100;959.1944;;;;
2020/05/03 03:12:58;;;;;;;5.1;4.6;;;;;;;5.91;100;959.2581;;;;
2020/05/03 03:15:23;;;;;;;5.9;4.7;;;;;;;5.99;100;959.1983;;;;
2020/05/03 03:17:55;;;;;;;5.8;4.2;;;;;;;6.1;100;959.141;;;;
2020/05/03 03:20:21;;;;;;;5.2;4.2;;;;;;;6.06;100;959.1295;;;;
2020/05/03 03:22:40;;;;;;;4.7;4;;;;;;;5.86;100;959.1111;;;;
2020/05/03 03:25:05;;;;;;;5.2;4.3;;;;;;;5.98;100;959.0441;;;;
2020/05/03 03:27:37;;;;;;;5.1;4.2;;;;;;;5.88;100;959.0711;;;;
2020/05/03 03:30:02;;;;;;;4.7;4.3;;;;;;;6.02;100;959.0596;;;;
2020/05/03 03:32:26;;;;;;;4.5;4;;;;;;;5.87;100;959.1711;;;;
2020/05/03 03:34:46;;;;;;;5.2;4.1;;;;;;;6;100;959.2075;;;;
2020/05/03 03:37:14;;;;;;;5.4;4;;;;;;;6.12;100;959.1616;;;;
2020/05/03 03:39:39;;;;;;;5.3;4.2;;;;;;;6.11;100;959.2374;;;;
2020/05/03 03:42:01;;;;;;;5.7;4.3;;;;;;;6.14;100;959.2264;;;;
2020/05/03 03:44:25;;;;;;;5;4.2;;;;;;;6.23;100;959.2189;;;;
2020/05/03 03:46:50;;;;;;;5.2;4.2;;;;;;;6.18;100;959.2327;;;;
2020/05/03 03:49:16;;;;;;;4.8;3.7;;;;;;;6.16;100;959.3077;;;;
2020/05/03 03:51:41;;;;;;;6.7;4.2;;;;;;;6.24;100;959.3342;;;;
2020/05/03 03:54:06;;;;;;;5.5;4.2;;;;;;;6.26;100;959.4176;;;;
2020/05/03 03:56:32;;;;;;;5.2;3.5;;;;;;;6.32;99.89648;959.4222;;;;
2020/05/03 03:58:57;;;;;;;5.4;4;;;;;;;6.2;100;959.464;;;;
2020/05/03 04:02:26;;;;;;;4.3;3.9;;;;;;;6.23;100;959.567;;;;
2020/05/03 04:04:51;;;;;;;4.6;4;;;;;;;6.35;100;959.6091;;;;
2020/05/03 04:07:16;;;;;;;4.5;4;;;;;;;6.33;100;959.6561;;;;
2020/05/03 04:09:42;;;;;;;4.5;3.9;;;;;;;6.32;100;959.6945;;;;
2020/05/03 04:12:07;;;;;;;4.9;4;;;;;;;6.4;100;959.6908;;;;
2020/05/03 04:14:32;;;;;;;5.4;4;;;;;;;6.42;100;959.7539;;;;
2020/05/03 04:16:58;;;;;;;4.6;4.1;;;;;;;6.35;100;959.8082;;;;
2020/05/03 04:19:22;;;;;;;5.1;4.1;;;;;;;6.33;100;959.8195;;;;
2020/05/03 04:22:02;;;;;;;5.2;4.2;;;;;;;6.23;100;959.8923;;;;
2020/05/03 04:24:44;;;;;;;6.6;4.4;;;;;;;6.27;100;959.9404;;;;
2020/05/03 04:26:37;;;;;;;5.8;4.4;;;;;;;6.35;100;959.9313;;;;
2020/05/03 04:29:06;;;;;;;5;4.2;;;;;;;6.22;100;959.9741;;;;
2020/05/03 04:31:50;;;;;;;5;4.5;;;;;;;6.41;100;959.986;;;;
2020/05/03 04:34:02;;;;;;;5;4.2;;;;;;;6.4;100;959.9983;;;;
2020/05/03 04:36:26;;;;;;;6.5;4.7;;;;;;;6.46;99.96387;960.0474;;;;
2020/05/03 04:38:51;;;;;;;4.3;3.9;;;;;;;6.5;99.6875;960.0814;;;;
2020/05/03 04:41:16;;;;;;;4.6;4.1;;;;;;;6.52;99.12305;960.115;;;;
2020/05/03 04:43:37;;;;;;;4.8;4.3;;;;;;;6.35;98.69434;960.1116;;;;
2020/05/03 04:46:13;;;;;;;6;4.2;;;;;;;6.45;99.11816;960.0941;;;;
2020/05/03 04:48:25;;;;;;;5.5;4.2;;;;;;;6.37;98.80371;960.134;;;;
2020/05/03 04:50:51;;;;;;;4.5;4;;;;;;;6.34;98.58008;960.1418;;;;
2020/05/03 04:53:15;;;;;;;5.5;4.2;;;;;;;6.39;99.09473;960.1987;;;;
2020/05/03 04:55:42;;;;;;;5.2;4.2;;;;;;;6.37;98.9873;960.1944;;;;
2020/05/03 04:58:07;;;;;;;4.8;4.2;;;;;;;6.54;99.02539;960.2308;;;;
2020/05/03 05:00:33;;;;;;;4.7;4;;;;;;;6.49;97.81738;960.3192;;;;
2020/05/03 05:03:20;;;;;;;5.5;4.1;;;;;;;6.58;97.75586;960.2839;;;;
2020/05/03 05:05:45;;;;;;;4.8;3.9;;;;;;;6.64;97.38477;960.3488;;;;
2020/05/03 05:08:10;;;;;;;5.8;4.1;;;;;;;6.63;97.96191;960.4292;;;;
2020/05/03 05:10:35;;;;;;;6.1;4;;;;;;;6.64;97.89551;960.4342;;;;
2020/05/03 05:13:02;;;;;;;4.6;4;;;;;;;6.84;98.20313;960.4445;;;;
2020/05/03 05:15:29;;;;;;;5.1;3.5;;;;;;;6.75;96.46191;960.4384;;;;
2020/05/03 05:17:52;;;;;;;3.9;3.4;;;;;;;6.69;96.1084;960.4378;;;;
2020/05/03 05:20:17;;;;;;;3.9;3.5;;;;;;;6.81;95.88086;960.5172;;;;
2020/05/03 05:22:42;;;;;;;5.2;4;;;;;;;6.96;95.90332;960.5759;;;;
2020/05/03 05:25:08;;;;;;;5.5;3.9;;;;;;;6.95;94.89746;960.5903;;;;
2020/05/03 05:27:33;;;;;;;4.5;3.9;;;;;;;7.07;94.88867;960.608;;;;
2020/05/03 05:30:07;;;;;;;4.7;3.6;;;;;;;6.91;94.90137;960.7142;;;;
2020/05/03 05:32:25;;;;;;;4.5;3.8;;;;;;;6.91;95.01465;960.7461;;;;
2020/05/03 05:34:50;;;;;;;4.9;3.9;;;;;;;6.97;94.82324;960.741;;;;
2020/05/03 05:37:16;;;;;;;5.2;3.9;;;;;;;6.88;95.4082;960.8002;;;;
2020/05/03 05:39:41;;;;;;;4.9;4.2;;;;;;;6.86;95.09473;960.7848;;;;
2020/05/03 05:42:06;;;;;;;6.1;4.1;;;;;;;6.94;95.46582;960.842;;;;
2020/05/03 05:44:32;;;;;;;5.2;3.8;;;;;;;7.04;94.0498;960.877;;;;
2020/05/03 05:46:57;;;;;;;5.1;3.7;;;;;;;7;94.82715;960.8728;;;;
2020/05/03 05:49:23;;;;;;;4.1;3.6;;;;;;;7.01;94.18066;960.9553;;;;
2020/05/03 05:51:48;;;;;;;4.6;3.5;;;;;;;7.17;94.73047;960.9607;;;;
2020/05/03 05:54:15;;;;;;;5.2;3.7;;;;;;;7.13;93.93262;961.0081;;;;
2020/05/03 05:56:49;;;;;;;4.4;3.5;;;;;;;7.26;93.21973;961.0002;;;;
2020/05/03 05:59:05;;;;;;;6;3.8;;;;;;;7.08;93.58984;961.0086;;;;
2020/05/03 06:01:30;;;;;;;7.3;3.8;;;;;;;7.06;93.05078;961.0147;;;;
2020/05/03 06:03:56;;;;;;;4.4;3.4;;;;;;;7.27;93.16211;961.0425;;;;
2020/05/03 06:06:21;;;;;;;5;3.5;;;;;;;7.21;93.4248;961.079;;;;
2020/05/03 06:08:48;;;;;;;5;3.6;;;;;;;7.23;92.99414;961.1103;;;;
2020/05/03 06:11:13;;;;;;;6.5;3.7;;;;;;;7.17;94.22754;961.1292;;;;
2020/05/03 06:13:38;;;;;;;3.9;3.3;;;;;;;7.34;93.25977;961.0647;;;;
2020/05/03 06:16:04;;;;;;;4.6;3.5;;;;;;;7.53;93.32324;961.1244;;;;
2020/05/03 06:18:29;;;;;;;5.2;3.3;;;;;;;7.5;92.83594;961.1355;;;;
2020/05/03 06:20:55;;;;;;;5.4;3.7;;;;;;;7.29;92.7002;961.2006;;;;
2020/05/03 06:23:20;;;;;;;4;3.7;;;;;;;7.03;93.7168;961.2194;;;;
2020/05/03 06:25:46;;;;;;;5.1;3.7;;;;;;;7.31;94.60156;961.2817;;;;
2020/05/03 06:28:11;;;;;;;4.5;3.6;;;;;;;7.37;93.96289;961.3502;;;;
2020/05/03 06:30:37;;;;;;;4.7;3.6;;;;;;;7.55;93.64746;961.3286;;;;
2020/05/03 06:33:02;;;;;;;5.2;3.5;;;;;;;7.56;92.99805;961.3442;;;;
2020/05/03 06:35:27;;;;;;;5.4;3.6;;;;;;;7.69;91.32324;961.3731;;;;
2020/05/03 06:37:53;;;;;;;4.7;3.3;;;;;;;7.65;91.94238;961.3756;;;;
2020/05/03 06:40:18;;;;;;;4.6;3.7;;;;;;;7.43;91.9082;961.3862;;;;
2020/05/03 06:42:44;;;;;;;5.1;3.7;;;;;;;7.51;92.03809;961.4041;;;;
2020/05/03 06:45:09;;;;;;;4.6;3.7;;;;;;;7.57;92.31445;961.4275;;;;
2020/05/03 06:47:34;;;;;;;5.8;4;;;;;;;7.43;92.69629;961.4487;;;;
2020/05/03 06:49:59;;;;;;;7;3.9;;;;;;;7.53;91.56543;961.4302;;;;
2020/05/03 06:52:26;;;;;;;6;3.9;;;;;;;7.66;91.67188;961.4274;;;;
2020/05/03 06:54:51;;;;;;;5.5;3.7;;;;;;;7.88;92.4502;961.505;;;;
2020/05/03 06:57:17;;;;;;;6;3.7;;;;;;;8.09;90.48047;961.5059;;;;
2020/05/03 06:59:42;;;;;;;4.3;3.4;;;;;;;8.01;89.9834;961.5034;;;;
2020/05/03 07:02:07;;;;;;;4.6;3.3;;;;;;;8.15;90.43652;961.5273;;;;
2020/05/03 07:04:33;;;;;;;5.2;3.3;;;;;;;8.18;89.54004;961.4708;;;;
2020/05/03 07:06:59;;;;;;;4.9;3.5;;;;;;;8.32;87.80469;961.5125;;;;
2020/05/03 07:09:25;;;;;;;4.2;3.4;;;;;;;8.42;85.84473;961.5125;;;;
2020/05/03 07:11:50;;;;;;;3.2;2.8;;;;;;;8.51;85.55176;961.4997;;;;
2020/05/03 07:14:16;;;;;;;4.1;3.2;;;;;;;8.46;83.86914;961.5159;;;;
2020/05/03 07:16:41;;;;;;;7.2;3.4;;;;;;;8.56;84.67871;961.4956;;;;
2020/05/03 07:19:07;;;;;;;4.9;3;;;;;;;8.63;83.96094;961.5237;;;;
2020/05/03 07:21:32;;;;;;;3.5;3.1;;;;;;;8.84;84.51758;961.498;;;;
2020/05/03 07:23:58;;;;;;;3.7;3.1;;;;;;;8.79;82.5127;961.4534;;;;
2020/05/03 07:26:23;;;;;;;6;3.5;;;;;;;8.71;82.94531;961.4797;;;;
2020/05/03 07:28:49;;;;;;;5.9;3.6;;;;;;;8.81;84.75293;961.4964;;;;
2020/05/03 07:31:14;;;;;;;5.3;4.1;;;;;;;8.95;82.13086;961.4752;;;;
2020/05/03 07:33:40;;;;;;;5.2;3.9;;;;;;;8.93;81.2998;961.4883;;;;
2020/05/03 07:36:06;;;;;;;5.4;4.9;;;;;;;9.01;80.70898;961.5672;;;;
2020/05/03 07:38:33;;;;;;;6.6;4.7;;;;;;;9.12;81.38477;961.4928;;;;
2020/05/03 07:40:58;;;;;;;5.7;4.8;;;;;;;9.29;83.57227;961.4861;;;;
2020/05/03 07:43:23;;;;;;;5;4.5;;;;;;;9.33;79.95313;961.5375;;;;
2020/05/03 07:45:49;;;;;;;7.7;4.6;;;;;;;9.29;80.42871;961.5602;;;;
2020/05/03 07:48:14;;;;;;;5.4;4.9;;;;;;;9.51;80.93945;961.5617;;;;
2020/05/03 07:50:40;;;;;;;7;4.9;;;;;;;9.56;79.38965;961.5901;;;;
2020/05/03 07:53:05;;;;;;;5.8;5.2;;;;;;;9.63;78.90723;961.6287;;;;
2020/05/03 07:55:32;;;;;;;6.5;5.6;;;;;;;9.6;78.69531;961.6747;;;;
2020/05/03 07:57:57;;;;;;;5.7;4.8;;;;;;;9.6;78.01758;961.65;;;;
2020/05/03 08:00:22;;;;;;;5.7;5;;;;;;;9.67;79.15625;961.694;;;;
2020/05/03 08:02:48;;;;;;;6.2;5.4;;;;;;;9.75;77.70117;961.6534;;;;
2020/05/03 08:05:13;;;;;;;6.2;5.6;;;;;;;9.93;78.10059;961.7125;;;;
2020/05/03 08:07:39;;;;;;;5.6;5.1;;;;;;;10.07;76.49316;961.69;;;;
2020/05/03 08:10:04;;;;;;;6.7;5;;;;;;;10.25;76.14453;961.6756;;;;
2020/05/03 08:12:31;;;;;;;5.7;4.8;;;;;;;10.27;75.9082;961.7115;;;;
2020/05/03 08:14:56;;;;;;;5.3;4.6;;;;;;;10.37;75.61523;961.7276;;;;
2020/05/03 08:17:23;;;;;;;4.8;4.2;;;;;;;10.44;73.14258;961.7009;;;;
2020/05/03 08:20:11;;;;;;;4.9;4.4;;;;;;;10.5;76.0166;961.7003;;;;
2020/05/03 08:22:36;;;;;;;4.3;3.9;;;;;;;10.63;72.92188;961.7344;;;;
2020/05/03 08:25:01;;;;;;;4.4;4;;;;;;;10.63;72.66797;961.6928;;;;
2020/05/03 08:27:26;;;;;;;4.6;3.7;;;;;;;10.67;72.90332;961.6969;;;;
2020/05/03 08:29:51;;;;;;;4.2;3.3;;;;;;;10.7;70.83594;961.7155;;;;
2020/05/03 08:32:16;;;;;;;4.3;3.3;;;;;;;10.61;71.61719;961.7224;;;;
2020/05/03 08:34:41;;;;;;;5.1;3;;;;;;;10.63;69.45703;961.8045;;;;
2020/05/03 08:37:07;;;;;;;4.9;2.8;;;;;;;10.67;67.43555;961.7726;;;;
2020/05/03 08:39:31;;;;;;;4;2.8;;;;;;;10.66;66.83691;961.7464;;;;
2020/05/03 08:41:57;;;;;;;3.8;2.5;;;;;;;10.81;66.22559;961.6959;;;;
2020/05/03 08:44:23;;;;;;;4.1;2.4;;;;;;;11.04;65.33984;961.7131;;;;
2020/05/03 08:46:50;;;;;;;3.6;2.6;;;;;;;11.09;66.08496;961.7001;;;;
2020/05/03 08:49:15;;;;;;;2.5;2.3;;;;;;;11.2;64.47559;961.6983;;;;
2020/05/03 08:51:42;;;;;;;3.8;2.4;;;;;;;11.48;65.54297;961.7216;;;;
2020/05/03 08:54:07;;;;;;;5.2;2.3;;;;;;;11.58;64.82129;961.6428;;;;
2020/05/03 08:56:32;;;;;;;3.1;2.4;;;;;;;11.52;65.49219;961.7022;;;;
2020/05/03 08:58:57;;;;;;;3.5;2.1;;;;;;;11.66;66.12402;961.7886;;;;
2020/05/03 09:01:22;;;;;;;3;2.3;;;;;;;11.49;66.3291;961.8036;;;;
2020/05/03 09:03:47;;;;;;;3.9;2.1;;;;;;;11.33;63.59473;961.7798;;;;
2020/05/03 09:08:45;;;;;;;2.6;1.6;;;;;;;11.24;62.47656;961.8246;;;;
2020/05/03 09:11:05;;;;;;;2.5;2;;;;;;;11.24;63.69824;961.8597;;;;
2020/05/03 09:13:28;;;;;;;2.2;1.8;;;;;;;11.4;63.13379;961.8794;;;;
2020/05/03 09:15:54;;;;;;;2.6;2;;;;;;;11.38;61.73438;961.8683;;;;
2020/05/03 09:18:19;;;;;;;4.6;2.5;;;;;;;11.42;63.72461;961.8837;;;;
2020/05/03 09:20:47;;;;;;;2.5;1.9;;;;;;;11.47;62.10645;961.8513;;;;
2020/05/03 09:23:12;;;;;;;2.7;2;;;;;;;11.52;62.29883;961.867;;;;
2020/05/03 09:25:38;;;;;;;2.5;2.2;;;;;;;11.62;63.56836;961.7781;;;;
2020/05/03 09:28:03;;;;;;;2.8;2.2;;;;;;;11.91;63.04688;961.8181;;;;
2020/05/03 09:30:28;;;;;;;2.6;2;;;;;;;11.99;61.11816;961.7711;;;;
2020/05/03 09:32:54;;;;;;;3.6;2.2;;;;;;;12.03;62.33594;961.8022;;;;
2020/05/03 09:35:19;;;;;;;4.1;2.3;;;;;;;12.04;63.07715;961.8284;;;;
2020/05/03 09:37:47;;;;;;;3.3;2.4;;;;;;;11.73;63.62012;961.8473;;;;
2020/05/03 09:40:12;;;;;;;2.9;2.4;;;;;;;11.98;63.8291;961.8691;;;;
2020/05/03 09:42:37;;;;;;;3.6;2.4;;;;;;;12.06;65.49219;961.8713;;;;
2020/05/03 09:45:04;;;;;;;3.6;2.6;;;;;;;12.06;65.12305;961.8566;;;;
2020/05/03 09:47:29;;;;;;;3.4;2.3;;;;;;;12.17;64.59766;961.8901;;;;
2020/05/03 09:49:55;;;;;;;3.1;2;;;;;;;12.08;63.37012;961.8624;;;;
2020/05/03 09:52:20;;;;;;;3.5;2.3;;;;;;;12.27;63.5957;961.8959;;;;
2020/05/03 09:54:45;;;;;;;4.5;2.1;;;;;;;12.14;61.69434;961.8831;;;;
2020/05/03 09:57:10;;;;;;;3;1.6;;;;;;;12.13;63.33203;961.8405;;;;
2020/05/03 09:59:35;;;;;;;2.7;1.9;;;;;;;12.37;60.29297;961.8492;;;;
2020/05/03 10:02:01;;;;;;;2.6;1.6;;;;;;;12.49;59.08398;961.847;;;;
2020/05/03 10:04:26;;;;;;;2;1.3;;;;;;;12.72;58.09766;961.848;;;;
2020/05/03 10:06:52;;;;;;;3.4;1.5;;;;;;;12.84;53.32324;961.8882;;;;
2020/05/03 10:09:18;;;;;;;2.4;1.4;;;;;;;12.88;56.38379;961.8748;;;;
2020/05/03 10:11:43;;;;;;;2.9;1.4;;;;;;;12.85;56.03223;961.8392;;;;
2020/05/03 10:14:09;;;;;;;1.5;1.3;;;;;;;12.76;54.95703;961.82;;;;
2020/05/03 10:16:34;;;;;;;3.6;1.8;;;;;;;12.58;56.33203;961.8386;;;;
2020/05/03 10:19:01;;;;;;;4.9;1.4;;;;;;;12.72;56.12012;961.8236;;;;
2020/05/03 10:21:26;;;;;;;1.5;1.2;;;;;;;12.67;53.37305;961.8236;;;;
2020/05/03 10:23:54;;;;;;;2;1.3;;;;;;;12.63;55.12402;961.8738;;;;
2020/05/03 10:26:19;;;;;;;1.8;1.4;;;;;;;12.61;56.58008;961.8006;;;;
2020/05/03 10:28:47;;;;;;;2.1;1.4;;;;;;;12.63;56.80176;961.7944;;;;
2020/05/03 10:31:12;;;;;;;2.2;1.2;;;;;;;12.67;58.12598;961.7156;;;;
2020/05/03 10:33:38;;;;;;;1.5;1.2;;;;;;;12.79;55.64355;961.6772;;;;
2020/05/03 10:36:03;;;;;;;2.1;1.3;;;;;;;12.59;58.6123;961.6743;;;;
2020/05/03 10:38:29;;;;;;;4.3;1.5;;;;;;;12.4;59.16406;961.6102;;;;
2020/05/03 10:40:54;;;;;;;2.2;1.3;;;;;;;12.77;55.57129;961.6437;;;;
2020/05/03 10:43:19;;;;;;;1.9;1.2;;;;;;;12.68;58.4502;961.6511;;;;
2020/05/03 10:45:45;;;;;;;1.8;1.2;;;;;;;12.93;54.0293;961.685;;;;
2020/05/03 10:48:10;;;;;;;1.8;1.3;;;;;;;12.88;56.53418;961.6425;;;;
2020/05/03 10:50:35;;;;;;;2;1.3;;;;;;;12.95;56.47266;961.6122;;;;
2020/05/03 10:53:03;;;;;;;2.1;1.4;;;;;;;12.96;57.5166;961.6346;;;;
2020/05/03 10:55:28;;;;;;;2.9;1.3;;;;;;;13.19;55.47461;961.5894;;;;
2020/05/03 10:57:55;;;;;;;2.1;1.2;;;;;;;13.22;53.92676;961.6069;;;;
2020/05/03 11:00:20;;;;;;;2.2;1.3;;;;;;;13.21;53.76367;961.6106;;;;
2020/05/03 11:02:47;;;;;;;2.1;1.3;;;;;;;13.3;56.57715;961.4811;;;;
2020/05/03 11:05:12;;;;;;;2.2;1.4;;;;;;;13.12;52.72168;961.4459;;;;
2020/05/03 11:07:39;;;;;;;1.4;1.3;;;;;;;13.17;53.78125;961.4057;;;;
2020/05/03 11:10:04;;;;;;;2.4;1.3;;;;;;;13.33;52.87305;961.3315;;;;
2020/05/03 11:12:31;;;;;;;1.7;1.2;;;;;;;13.42;55.34082;961.2983;;;;
2020/05/03 11:14:56;;;;;;;1.9;1.2;;;;;;;13.62;53.1875;961.2357;;;;
2020/05/03 11:17:24;;;;;;;3.5;1.3;;;;;;;13.94;54.90918;961.3002;;;;
2020/05/03 11:19:49;;;;;;;1.8;1.2;;;;;;;13.98;51.70117;961.3127;;;;
2020/05/03 11:22:16;;;;;;;1.9;1.3;;;;;;;14.02;49.76758;961.2695;;;;
2020/05/03 11:24:41;;;;;;;1.5;1;;;;;;;14.05;52.41699;961.2427;;;;
2020/05/03 11:27:07;;;;;;;1.7;1.2;;;;;;;14.24;50.98828;961.2042;;;;
2020/05/03 11:29:37;;;;;;;1.7;1.1;;;;;;;14.28;50.37793;961.2619;;;;
2020/05/03 11:32:03;;;;;;;2.3;1.2;;;;;;;13.5;50.24121;961.2779;;;;
2020/05/03 11:34:27;;;;;;;2.3;1.2;;;;;;;13.51;50.54395;961.2927;;;;
2020/05/03 11:36:54;;;;;;;1.8;1.3;;;;;;;13.58;52.53418;961.3096;;;;
2020/05/03 11:39:19;;;;;;;3.1;1.4;;;;;;;13.91;51.05469;961.2778;;;;
2020/05/03 11:41:46;;;;;;;1.2;1.1;;;;;;;13.87;52.55664;961.301;;;;
2020/05/03 11:44:11;;;;;;;1.9;1.1;;;;;;;14.08;51.37598;961.2913;;;;
2020/05/03 11:46:38;;;;;;;2.8;1.3;;;;;;;14.54;49.9668;961.3269;;;;
2020/05/03 11:49:03;;;;;;;1.7;1.1;;;;;;;14.59;49.91504;961.3183;;;;
2020/05/03 11:51:29;;;;;;;1.4;1.1;;;;;;;14.39;48.29004;961.2922;;;;
2020/05/03 11:53:54;;;;;;;1.6;1.1;;;;;;;14.65;48.85254;961.2325;;;;
2020/05/03 11:56:20;;;;;;;1.5;0.9;;;;;;;14.83;46.38574;961.2352;;;;
2020/05/03 11:58:45;;;;;;;1.5;1;;;;;;;14.65;48.66699;961.1619;;;;
2020/05/03 12:01:12;;;;;;;1.3;0.8;;;;;;;14.64;48.77051;961.1898;;;;
2020/05/03 12:03:37;;;;;;;2;1.1;;;;;;;14.62;48.76758;961.1241;;;;
2020/05/03 12:06:05;;;;;;;1.2;0.9;;;;;;;14.5;46.84863;961.1772;;;;
2020/05/03 12:08:30;;;;;;;1.5;0.9;;;;;;;15.04;46.72168;961.163;;;;
2020/05/03 12:10:56;;;;;;;1.1;0.7;;;;;;;15.27;44.26758;961.247;;;;
2020/05/03 12:13:20;;;;;;;1.4;1;;;;;;;15.32;41.46875;961.2136;;;;
2020/05/03 12:15:45;;;;;;;1.2;0.9;;;;;;;15.63;43.12891;961.2347;;;;
2020/05/03 12:18:16;;;;;;;1.9;0.9;;;;;;;15.68;41.25781;961.3331;;;;
2020/05/03 12:20:36;;;;;;;3;1;;;;;;;15.45;40.36426;961.3173;;;;
2020/05/03 12:23:03;;;;;;;1.4;0.8;;;;;;;15.39;40.14844;961.332;;;;
2020/05/03 12:25:28;;;;;;;1.2;0.8;;;;;;;15.13;41.68457;961.3694;;;;
2020/05/03 12:27:53;;;;;;;2.1;1;;;;;;;14.87;43.28613;961.4235;;;;
2020/05/03 12:30:18;;;;;;;1.1;0.7;;;;;;;14.67;45.17188;961.3616;;;;
2020/05/03 12:32:43;;;;;;;1.2;0.8;;;;;;;14.72;45.71094;961.3742;;;;
2020/05/03 12:35:08;;;;;;;1.5;0.9;;;;;;;14.25;45.2793;961.3542;;;;
2020/05/03 12:37:33;;;;;;;1.3;0.9;;;;;;;14.27;47.52148;961.3086;;;;
2020/05/03 12:39:58;;;;;;;1.7;1;;;;;;;14.54;45.11133;961.2711;;;;
2020/05/03 12:42:24;;;;;;;0.9;0.8;;;;;;;15.21;43.49316;961.2501;;;;
2020/05/03 12:44:49;;;;;;;1.4;0.9;;;;;;;15.5;44.08105;961.2166;;;;
2020/05/03 12:47:14;;;;;;;1.1;0.8;;;;;;;15.55;44.94824;961.1959;;;;
2020/05/03 12:49:39;;;;;;;3.9;0.9;;;;;;;15.61;42.76563;961.2264;;;;
2020/05/03 12:52:05;;;;;;;1.1;0.9;;;;;;;15.85;43.46484;961.2816;;;;
2020/05/03 12:54:29;;;;;;;1.5;1.1;;;;;;;15.97;42.5332;961.27;;;;
2020/05/03 12:56:54;;;;;;;1.7;0.9;;;;;;;15.52;42.01172;961.2865;;;;
2020/05/03 12:59:19;;;;;;;2;0.9;;;;;;;15.66;41.48926;961.2899;;;;
2020/05/03 13:01:44;;;;;;;2;0.8;;;;;;;15.32;42.37598;961.2719;;;;
2020/05/03 13:04:11;;;;;;;2;1;;;;;;;15.2;44.12109;961.2615;;;;
2020/05/03 13:06:36;;;;;;;1.7;0.9;;;;;;;15.13;45.03223;961.2932;;;;
2020/05/03 13:09:03;;;;;;;1.3;0.8;;;;;;;15.1;46.44824;961.2446;;;;
2020/05/03 13:11:28;;;;;;;1.6;0.8;;;;;;;15.03;43.70801;961.2461;;;;
2020/05/03 13:13:55;;;;;;;2.5;1;;;;;;;14.93;43.94336;961.2883;;;;
2020/05/03 13:16:21;;;;;;;2.4;1.1;;;;;;;14.86;43.51758;961.2936;;;;
2020/05/03 13:18:46;;;;;;;1;0.8;;;;;;;15.01;46.12598;961.2081;;;;
2020/05/03 13:21:12;;;;;;;2.1;0.9;;;;;;;15.2;45.93555;961.2082;;;;
2020/05/03 13:23:37;;;;;;;2.5;1.2;;;;;;;15.44;42.14355;961.1269;;;;
2020/05/03 13:26:04;;;;;;;1.1;0.8;;;;;;;15.82;43.8584;961.0849;;;;
2020/05/03 13:28:29;;;;;;;1.5;1;;;;;;;15.97;45.46973;961.0941;;;;
2020/05/03 13:30:55;;;;;;;2;0.9;;;;;;;16.24;42.66406;961.0686;;;;
2020/05/03 13:33:21;;;;;;;2.1;0.9;;;;;;;15.88;42.11621;960.9978;;;;
2020/05/03 13:35:46;;;;;;;2.1;1;;;;;;;15.33;45.2041;960.9631;;;;
2020/05/03 13:38:11;;;;;;;1.3;0.9;;;;;;;15.12;45.05566;960.9623;;;;
2020/05/03 13:40:37;;;;;;;2.1;1;;;;;;;15.19;44.73828;960.8903;;;;
2020/05/03 13:45:34;;;;;;;1.3;0.8;;;;;;;15.39;46.01367;960.9024;;;;
2020/05/03 13:47:57;;;;;;;1.3;0.8;;;;;;;15.33;44.54102;960.8308;;;;
2020/05/03 13:53:06;;;;;;;1.6;0.9;;;;;;;15.2;44.69141;960.7542;;;;
2020/05/03 13:55:16;;;;;;;1.9;1;;;;;;;15.34;45.42676;960.7125;;;;
2020/05/03 13:57:40;;;;;;;1.5;0.9;;;;;;;15.9;43.7959;960.7547;;;;
